sensor_id;sensor_type;location;lat;lon;timestamp;pressure;altitude;pressure_sealevel;temperature;humidity
4024;BME280;2026;51.002;13.668;2022-12-10T00:01:05;98105.06;;;-0.91;88.43
4024;BME280;2026;51.002;13.668;2022-12-10T00:06:11;98105.13;;;-0.99;88.87
4024;BME280;2026;51.002;13.668;2022-12-10T00:11:16;98097.19;;;-0.97;89.13
4024;BME280;2026;51.002;13.668;2022-12-10T00:16:21;98091.94;;;-0.89;87.71
4024;BME280;2026;51.002;13.668;2022-12-10T00:21:27;98100.56;;;-1.20;88.57
4024;BME280;2026;51.002;13.668;2022-12-10T00:26:33;98098.38;;;-1.08;88.58
4024;BME280;2026;51.002;13.668;2022-12-10T00:31:37;98097.53;;;-1.01;88.14
4024;BME280;2026;51.002;13.668;2022-12-10T00:36:42;98102.88;;;-1.02;88.38
4024;BME280;2026;51.002;13.668;2022-12-10T00:41:48;98098.81;;;-1.51;90.01
4024;BME280;2026;51.002;13.668;2022-12-10T00:46:51;98103.72;;;-1.33;89.20
4024;BME280;2026;51.002;13.668;2022-12-10T00:51:54;98100.97;;;-1.32;89.42
4024;BME280;2026;51.002;13.668;2022-12-10T00:56:58;98105.56;;;-1.19;88.72
4024;BME280;2026;51.002;13.668;2022-12-10T01:02:01;98107.38;;;-1.28;88.68
4024;BME280;2026;51.002;13.668;2022-12-10T01:07:04;98113.72;;;-1.30;89.17
4024;BME280;2026;51.002;13.668;2022-12-10T01:12:13;98105.25;;;-1.16;88.77
4024;BME280;2026;51.002;13.668;2022-12-10T01:17:16;98105.84;;;-1.37;89.69
4024;BME280;2026;51.002;13.668;2022-12-10T01:22:19;98123.00;;;-1.21;89.36
4024;BME280;2026;51.002;13.668;2022-12-10T01:27:23;98116.34;;;-1.38;89.69
4024;BME280;2026;51.002;13.668;2022-12-10T01:32:26;98116.56;;;-1.25;89.52
4024;BME280;2026;51.002;13.668;2022-12-10T01:37:29;98122.66;;;-1.41;89.16
4024;BME280;2026;51.002;13.668;2022-12-10T01:42:33;98121.16;;;-1.35;89.43
4024;BME280;2026;51.002;13.668;2022-12-10T01:47:36;98128.63;;;-1.17;88.62
4024;BME280;2026;51.002;13.668;2022-12-10T01:52:39;98126.56;;;-1.22;89.10
4024;BME280;2026;51.002;13.668;2022-12-10T01:57:44;98125.91;;;-1.24;89.12
4024;BME280;2026;51.002;13.668;2022-12-10T02:02:56;98116.97;;;-1.13;88.58
4024;BME280;2026;51.002;13.668;2022-12-10T02:08:10;98111.06;;;-1.45;90.47
4024;BME280;2026;51.002;13.668;2022-12-10T02:13:21;98122.75;;;-1.34;89.33
4024;BME280;2026;51.002;13.668;2022-12-10T02:18:30;98115.94;;;-1.27;88.91
4024;BME280;2026;51.002;13.668;2022-12-10T02:23:36;98113.94;;;-1.17;87.61
4024;BME280;2026;51.002;13.668;2022-12-10T02:28:47;98115.31;;;-1.29;87.82
4024;BME280;2026;51.002;13.668;2022-12-10T02:33:56;98116.00;;;-1.35;88.53
4024;BME280;2026;51.002;13.668;2022-12-10T02:39:02;98113.25;;;-1.34;88.58
4024;BME280;2026;51.002;13.668;2022-12-10T02:44:10;98109.81;;;-1.49;89.53
4024;BME280;2026;51.002;13.668;2022-12-10T02:49:16;98114.97;;;-1.26;88.17
4024;BME280;2026;51.002;13.668;2022-12-10T02:54:38;98109.06;;;-1.35;87.37
4024;BME280;2026;51.002;13.668;2022-12-10T02:59:52;98104.84;;;-1.36;87.66
4024;BME280;2026;51.002;13.668;2022-12-10T03:05:12;98117.22;;;-1.54;89.20
4024;BME280;2026;51.002;13.668;2022-12-10T03:10:23;98126.63;;;-1.30;88.76
4024;BME280;2026;51.002;13.668;2022-12-10T03:15:29;98137.94;;;-1.39;88.21
4024;BME280;2026;51.002;13.668;2022-12-10T03:20:39;98144.16;;;-1.57;88.44
4024;BME280;2026;51.002;13.668;2022-12-10T03:25:47;98128.38;;;-1.31;87.78
4024;BME280;2026;51.002;13.668;2022-12-10T03:30:52;98135.97;;;-1.29;87.57
4024;BME280;2026;51.002;13.668;2022-12-10T03:35:58;98132.03;;;-1.48;88.22
4024;BME280;2026;51.002;13.668;2022-12-10T03:41:01;98145.25;;;-1.20;87.69
4024;BME280;2026;51.002;13.668;2022-12-10T03:46:04;98136.63;;;-1.04;86.88
4024;BME280;2026;51.002;13.668;2022-12-10T03:51:09;98131.56;;;-0.97;86.17
4024;BME280;2026;51.002;13.668;2022-12-10T03:56:11;98128.22;;;-1.06;86.42
4024;BME280;2026;51.002;13.668;2022-12-10T04:01:15;98125.78;;;-0.99;86.30
4024;BME280;2026;51.002;13.668;2022-12-10T04:06:19;98128.03;;;-1.28;86.27
4024;BME280;2026;51.002;13.668;2022-12-10T04:11:23;98129.16;;;-1.22;86.39
4024;BME280;2026;51.002;13.668;2022-12-10T04:16:27;98132.84;;;-1.01;85.69
4024;BME280;2026;51.002;13.668;2022-12-10T04:21:33;98143.28;;;-1.18;85.76
4024;BME280;2026;51.002;13.668;2022-12-10T04:26:55;98132.25;;;-1.26;86.11
4024;BME280;2026;51.002;13.668;2022-12-10T04:31:58;98136.28;;;-1.32;86.80
4024;BME280;2026;51.002;13.668;2022-12-10T04:37:04;98127.66;;;-1.16;86.95
4024;BME280;2026;51.002;13.668;2022-12-10T04:42:07;98131.06;;;-1.24;86.25
4024;BME280;2026;51.002;13.668;2022-12-10T04:47:11;98128.72;;;-1.10;87.00
4024;BME280;2026;51.002;13.668;2022-12-10T04:52:16;98127.59;;;-1.31;86.80
4024;BME280;2026;51.002;13.668;2022-12-10T04:57:19;98125.91;;;-1.24;87.21
4024;BME280;2026;51.002;13.668;2022-12-10T05:02:22;98118.06;;;-1.31;87.08
4024;BME280;2026;51.002;13.668;2022-12-10T05:07:26;98118.78;;;-1.13;86.90
4024;BME280;2026;51.002;13.668;2022-12-10T05:12:29;98114.63;;;-1.23;87.00
4024;BME280;2026;51.002;13.668;2022-12-10T05:17:32;98117.72;;;-1.28;87.61
4024;BME280;2026;51.002;13.668;2022-12-10T05:22:37;98116.59;;;-1.02;86.73
4024;BME280;2026;51.002;13.668;2022-12-10T05:27:57;98124.16;;;-1.23;87.02
4024;BME280;2026;51.002;13.668;2022-12-10T05:33:00;98125.59;;;-1.52;88.19
4024;BME280;2026;51.002;13.668;2022-12-10T05:38:05;98124.19;;;-1.63;88.77
4024;BME280;2026;51.002;13.668;2022-12-10T05:43:08;98124.72;;;-1.36;88.20
4024;BME280;2026;51.002;13.668;2022-12-10T05:48:12;98128.03;;;-1.28;87.47
4024;BME280;2026;51.002;13.668;2022-12-10T05:53:16;98134.06;;;-1.35;87.97
4024;BME280;2026;51.002;13.668;2022-12-10T05:58:19;98137.34;;;-1.18;86.78
4024;BME280;2026;51.002;13.668;2022-12-10T06:03:22;98133.44;;;-1.37;87.89
4024;BME280;2026;51.002;13.668;2022-12-10T06:08:27;98134.47;;;-1.23;87.17
4024;BME280;2026;51.002;13.668;2022-12-10T06:13:30;98147.44;;;-1.08;87.12
4024;BME280;2026;51.002;13.668;2022-12-10T06:18:33;98142.88;;;-1.53;88.27
4024;BME280;2026;51.002;13.668;2022-12-10T06:23:38;98142.47;;;-1.42;87.75
4024;BME280;2026;51.002;13.668;2022-12-10T06:28:43;98155.41;;;-1.50;88.31
4024;BME280;2026;51.002;13.668;2022-12-10T06:33:47;98159.56;;;-1.40;88.95
4024;BME280;2026;51.002;13.668;2022-12-10T06:38:52;98164.75;;;-1.49;88.65
4024;BME280;2026;51.002;13.668;2022-12-10T06:43:55;98169.47;;;-1.21;87.75
4024;BME280;2026;51.002;13.668;2022-12-10T06:49:00;98170.34;;;-1.37;88.60
4024;BME280;2026;51.002;13.668;2022-12-10T06:54:04;98169.63;;;-1.54;88.97
4024;BME280;2026;51.002;13.668;2022-12-10T06:59:07;98184.19;;;-1.70;90.71
4024;BME280;2026;51.002;13.668;2022-12-10T07:04:10;98181.97;;;-1.81;91.73
4024;BME280;2026;51.002;13.668;2022-12-10T07:09:14;98183.88;;;-1.75;91.10
4024;BME280;2026;51.002;13.668;2022-12-10T07:14:18;98179.84;;;-1.77;91.83
4024;BME280;2026;51.002;13.668;2022-12-10T07:19:21;98184.59;;;-1.49;90.69
4024;BME280;2026;51.002;13.668;2022-12-10T07:24:25;98181.03;;;-1.48;90.06
4024;BME280;2026;51.002;13.668;2022-12-10T07:29:28;98193.91;;;-1.40;90.10
4024;BME280;2026;51.002;13.668;2022-12-10T07:34:31;98189.66;;;-1.73;90.64
4024;BME280;2026;51.002;13.668;2022-12-10T07:39:35;98195.56;;;-1.56;90.38
4024;BME280;2026;51.002;13.668;2022-12-10T07:44:38;98198.09;;;-1.39;90.07
4024;BME280;2026;51.002;13.668;2022-12-10T07:49:48;98187.38;;;-1.28;89.76
4024;BME280;2026;51.002;13.668;2022-12-10T07:54:52;98187.97;;;-1.49;89.85
4024;BME280;2026;51.002;13.668;2022-12-10T07:59:55;98203.72;;;-1.35;89.91
4024;BME280;2026;51.002;13.668;2022-12-10T08:04:59;98197.59;;;-1.03;89.09
4024;BME280;2026;51.002;13.668;2022-12-10T08:10:04;98211.28;;;-1.34;89.80
4024;BME280;2026;51.002;13.668;2022-12-10T08:15:09;98204.47;;;-1.66;90.96
4024;BME280;2026;51.002;13.668;2022-12-10T08:20:12;98212.91;;;-1.89;92.60
4024;BME280;2026;51.002;13.668;2022-12-10T08:25:16;98207.00;;;-1.50;90.78
4024;BME280;2026;51.002;13.668;2022-12-10T08:30:21;98213.09;;;-1.43;90.77
4024;BME280;2026;51.002;13.668;2022-12-10T08:35:24;98213.31;;;-1.21;89.96
4024;BME280;2026;51.002;13.668;2022-12-10T08:40:28;98212.44;;;-1.36;89.64
4024;BME280;2026;51.002;13.668;2022-12-10T08:45:31;98216.09;;;-1.62;91.21
4024;BME280;2026;51.002;13.668;2022-12-10T08:50:35;98230.09;;;-1.25;90.64
4024;BME280;2026;51.002;13.668;2022-12-10T08:55:40;98231.50;;;-1.14;90.33
4024;BME280;2026;51.002;13.668;2022-12-10T09:00:50;98236.00;;;-1.48;89.71
4024;BME280;2026;51.002;13.668;2022-12-10T09:05:53;98238.06;;;-1.91;91.94
4024;BME280;2026;51.002;13.668;2022-12-10T09:10:58;98242.09;;;-1.40;91.09
4024;BME280;2026;51.002;13.668;2022-12-10T09:16:01;98239.50;;;-1.80;91.15
4024;BME280;2026;51.002;13.668;2022-12-10T09:21:05;98243.19;;;-1.83;92.50
4024;BME280;2026;51.002;13.668;2022-12-10T09:26:11;98242.88;;;-1.97;92.47
4024;BME280;2026;51.002;13.668;2022-12-10T09:31:16;98250.28;;;-1.77;92.33
4024;BME280;2026;51.002;13.668;2022-12-10T09:36:22;98246.59;;;-1.91;93.11
4024;BME280;2026;51.002;13.668;2022-12-10T09:47:10;98245.81;;;-2.00;93.03
4024;BME280;2026;51.002;13.668;2022-12-10T09:52:17;98239.16;;;-1.86;93.12
4024;BME280;2026;51.002;13.668;2022-12-10T09:57:24;98240.00;;;-1.93;92.87
4024;BME280;2026;51.002;13.668;2022-12-10T10:02:31;98233.56;;;-2.06;92.90
4024;BME280;2026;51.002;13.668;2022-12-10T10:07:37;98239.72;;;-2.23;93.80
4024;BME280;2026;51.002;13.668;2022-12-10T10:12:42;98234.03;;;-2.02;94.15
4024;BME280;2026;51.002;13.668;2022-12-10T10:17:47;98231.63;;;-2.04;93.00
4024;BME280;2026;51.002;13.668;2022-12-10T10:22:52;98228.09;;;-2.19;93.09
4024;BME280;2026;51.002;13.668;2022-12-10T10:27:58;98228.91;;;-2.27;93.30
4024;BME280;2026;51.002;13.668;2022-12-10T10:33:08;98237.91;;;-1.90;93.40
4024;BME280;2026;51.002;13.668;2022-12-10T10:38:18;98226.94;;;-2.00;91.79
4024;BME280;2026;51.002;13.668;2022-12-10T10:43:24;98225.22;;;-2.25;92.36
4024;BME280;2026;51.002;13.668;2022-12-10T10:48:29;98220.84;;;-2.24;93.21
4024;BME280;2026;51.002;13.668;2022-12-10T10:53:40;98218.41;;;-1.92;93.45
4024;BME280;2026;51.002;13.668;2022-12-10T10:58:49;98218.44;;;-2.09;92.81
4024;BME280;2026;51.002;13.668;2022-12-10T11:03:57;98220.03;;;-2.08;92.69
4024;BME280;2026;51.002;13.668;2022-12-10T11:09:00;98222.66;;;-2.25;92.62
4024;BME280;2026;51.002;13.668;2022-12-10T11:14:15;98222.59;;;-1.91;92.40
4024;BME280;2026;51.002;13.668;2022-12-10T11:19:21;98218.78;;;-2.29;92.16
4024;BME280;2026;51.002;13.668;2022-12-10T11:24:25;98228.94;;;-2.35;92.67
4024;BME280;2026;51.002;13.668;2022-12-10T11:29:46;98230.16;;;-2.06;92.73
4024;BME280;2026;51.002;13.668;2022-12-10T11:35:07;98231.31;;;-2.01;92.54
4024;BME280;2026;51.002;13.668;2022-12-10T11:40:23;98227.47;;;-2.21;92.60
4024;BME280;2026;51.002;13.668;2022-12-10T11:45:36;98233.72;;;-1.99;91.77
4024;BME280;2026;51.002;13.668;2022-12-10T11:50:50;98227.28;;;-2.03;92.15
4024;BME280;2026;51.002;13.668;2022-12-10T11:56:01;98225.84;;;-2.22;92.04
4024;BME280;2026;51.002;13.668;2022-12-10T12:01:14;98223.66;;;-1.69;91.28
4024;BME280;2026;51.002;13.668;2022-12-10T12:06:35;98234.13;;;-1.71;89.97
4024;BME280;2026;51.002;13.668;2022-12-10T12:12:03;98228.03;;;-1.70;91.12
4024;BME280;2026;51.002;13.668;2022-12-10T12:17:14;98225.66;;;-1.88;92.23
4024;BME280;2026;51.002;13.668;2022-12-10T12:22:24;98233.91;;;-2.09;92.42
4024;BME280;2026;51.002;13.668;2022-12-10T12:27:31;98228.38;;;-1.89;92.13
4024;BME280;2026;51.002;13.668;2022-12-10T12:32:45;98224.53;;;-1.93;91.58
4024;BME280;2026;51.002;13.668;2022-12-10T12:37:54;98224.84;;;-1.88;90.95
4024;BME280;2026;51.002;13.668;2022-12-10T12:43:00;98229.34;;;-1.82;91.09
4024;BME280;2026;51.002;13.668;2022-12-10T12:48:14;98219.06;;;-1.99;91.48
4024;BME280;2026;51.002;13.668;2022-12-10T12:53:23;98220.38;;;-2.19;91.83
4024;BME280;2026;51.002;13.668;2022-12-10T12:58:40;98225.34;;;-2.01;91.77
4024;BME280;2026;51.002;13.668;2022-12-10T13:03:45;98223.88;;;-1.95;91.73
4024;BME280;2026;51.002;13.668;2022-12-10T13:08:53;98220.06;;;-2.25;92.96
4024;BME280;2026;51.002;13.668;2022-12-10T13:14:30;98238.56;;;-2.46;92.46
4024;BME280;2026;51.002;13.668;2022-12-10T13:19:34;98239.06;;;-2.34;92.75
4024;BME280;2026;51.002;13.668;2022-12-10T13:24:59;98253.22;;;-2.30;92.95
4024;BME280;2026;51.002;13.668;2022-12-10T13:30:31;98257.75;;;-2.48;93.92
4024;BME280;2026;51.002;13.668;2022-12-10T13:35:42;98248.38;;;-2.41;93.34
4024;BME280;2026;51.002;13.668;2022-12-10T13:41:04;98255.94;;;-2.23;93.59
4024;BME280;2026;51.002;13.668;2022-12-10T13:46:30;98259.00;;;-1.94;92.12
4024;BME280;2026;51.002;13.668;2022-12-10T13:51:46;98263.34;;;-2.53;93.25
4024;BME280;2026;51.002;13.668;2022-12-10T13:56:57;98267.38;;;-2.34;93.41
4024;BME280;2026;51.002;13.668;2022-12-10T14:02:37;98266.09;;;-2.38;93.36
4024;BME280;2026;51.002;13.668;2022-12-10T14:07:47;98268.84;;;-2.40;93.18
4024;BME280;2026;51.002;13.668;2022-12-10T14:12:54;98273.16;;;-2.57;92.86
4024;BME280;2026;51.002;13.668;2022-12-10T14:18:00;98286.97;;;-2.66;93.63
4024;BME280;2026;51.002;13.668;2022-12-10T14:23:18;98289.75;;;-2.59;93.65
4024;BME280;2026;51.002;13.668;2022-12-10T14:28:50;98291.84;;;-2.63;93.65
4024;BME280;2026;51.002;13.668;2022-12-10T14:34:00;98288.56;;;-2.73;93.46
4024;BME280;2026;51.002;13.668;2022-12-10T14:39:04;98298.25;;;-2.67;93.86
4024;BME280;2026;51.002;13.668;2022-12-10T14:44:14;98292.16;;;-2.58;93.74
4024;BME280;2026;51.002;13.668;2022-12-10T14:49:20;98304.50;;;-2.70;93.37
4024;BME280;2026;51.002;13.668;2022-12-10T14:54:26;98309.38;;;-2.67;93.38
4024;BME280;2026;51.002;13.668;2022-12-10T14:59:35;98310.66;;;-2.62;93.67
4024;BME280;2026;51.002;13.668;2022-12-10T15:04:43;98308.06;;;-2.62;93.39
4024;BME280;2026;51.002;13.668;2022-12-10T15:09:48;98308.41;;;-2.57;93.50
4024;BME280;2026;51.002;13.668;2022-12-10T15:14:54;98310.13;;;-2.74;93.55
4024;BME280;2026;51.002;13.668;2022-12-10T15:19:58;98322.75;;;-2.55;93.82
4024;BME280;2026;51.002;13.668;2022-12-10T15:25:14;98312.19;;;-2.86;93.80
4024;BME280;2026;51.002;13.668;2022-12-10T15:30:28;98312.09;;;-2.60;94.02
4024;BME280;2026;51.002;13.668;2022-12-10T15:35:35;98316.31;;;-2.34;93.52
4024;BME280;2026;51.002;13.668;2022-12-10T15:40:38;98321.44;;;-2.59;92.96
4024;BME280;2026;51.002;13.668;2022-12-10T15:45:42;98330.94;;;-2.59;93.41
4024;BME280;2026;51.002;13.668;2022-12-10T15:50:46;98342.38;;;-2.62;93.31
4024;BME280;2026;51.002;13.668;2022-12-10T15:55:50;98349.59;;;-2.66;93.34
4024;BME280;2026;51.002;13.668;2022-12-10T16:00:54;98351.66;;;-2.69;93.97
4024;BME280;2026;51.002;13.668;2022-12-10T16:05:58;98348.88;;;-2.84;93.91
4024;BME280;2026;51.002;13.668;2022-12-10T16:11:09;98365.00;;;-2.74;93.76
4024;BME280;2026;51.002;13.668;2022-12-10T16:16:16;98364.44;;;-2.51;93.73
4024;BME280;2026;51.002;13.668;2022-12-10T16:21:20;98371.38;;;-2.43;93.13
4024;BME280;2026;51.002;13.668;2022-12-10T16:26:24;98374.31;;;-2.13;92.50
4024;BME280;2026;51.002;13.668;2022-12-10T16:31:28;98364.22;;;-2.66;93.14
4024;BME280;2026;51.002;13.668;2022-12-10T16:36:31;98364.22;;;-2.66;93.72
4024;BME280;2026;51.002;13.668;2022-12-10T16:41:34;98374.03;;;-2.70;93.42
4024;BME280;2026;51.002;13.668;2022-12-10T16:46:39;98378.56;;;-2.63;94.17
4024;BME280;2026;51.002;13.668;2022-12-10T16:51:42;98383.38;;;-2.60;92.62
4024;BME280;2026;51.002;13.668;2022-12-10T16:56:45;98386.88;;;-2.70;93.21
4024;BME280;2026;51.002;13.668;2022-12-10T17:01:49;98377.00;;;-2.91;94.10
4024;BME280;2026;51.002;13.668;2022-12-10T17:06:53;98374.75;;;-2.94;94.43
4024;BME280;2026;51.002;13.668;2022-12-10T17:11:56;98378.66;;;-2.82;94.66
4024;BME280;2026;51.002;13.668;2022-12-10T17:17:00;98378.19;;;-2.69;94.36
4024;BME280;2026;51.002;13.668;2022-12-10T17:22:05;98376.16;;;-2.57;93.29
4024;BME280;2026;51.002;13.668;2022-12-10T17:27:12;98379.56;;;-2.91;93.61
4024;BME280;2026;51.002;13.668;2022-12-10T17:32:18;98379.56;;;-2.91;93.76
4024;BME280;2026;51.002;13.668;2022-12-10T17:37:22;98391.09;;;-3.03;94.66
4024;BME280;2026;51.002;13.668;2022-12-10T17:42:25;98379.75;;;-2.84;94.02
4024;BME280;2026;51.002;13.668;2022-12-10T17:47:29;98385.22;;;-2.87;93.74
4024;BME280;2026;51.002;13.668;2022-12-10T17:52:33;98389.19;;;-3.01;93.90
4024;BME280;2026;51.002;13.668;2022-12-10T17:57:36;98389.75;;;-3.16;94.75
4024;BME280;2026;51.002;13.668;2022-12-10T18:02:41;98388.16;;;-2.82;94.19
4024;BME280;2026;51.002;13.668;2022-12-10T18:07:44;98389.63;;;-2.71;93.22
4024;BME280;2026;51.002;13.668;2022-12-10T18:12:47;98383.00;;;-2.82;93.11
4024;BME280;2026;51.002;13.668;2022-12-10T18:17:52;98397.78;;;-2.84;93.33
4024;BME280;2026;51.002;13.668;2022-12-10T18:22:56;98395.63;;;-2.97;93.19
4024;BME280;2026;51.002;13.668;2022-12-10T18:28:06;98401.56;;;-2.70;93.38
4024;BME280;2026;51.002;13.668;2022-12-10T18:33:18;98394.78;;;-2.71;92.68
4024;BME280;2026;51.002;13.668;2022-12-10T18:38:21;98394.47;;;-2.68;93.14
4024;BME280;2026;51.002;13.668;2022-12-10T18:43:25;98395.59;;;-2.71;92.62
4024;BME280;2026;51.002;13.668;2022-12-10T18:48:29;98386.94;;;-2.96;93.27
4024;BME280;2026;51.002;13.668;2022-12-10T18:53:32;98389.19;;;-3.01;93.90
4024;BME280;2026;51.002;13.668;2022-12-10T18:58:35;98381.97;;;-2.98;94.68
4024;BME280;2026;51.002;13.668;2022-12-10T19:03:40;98391.72;;;-3.10;94.10
4024;BME280;2026;51.002;13.668;2022-12-10T19:08:50;98389.44;;;-3.13;93.71
4024;BME280;2026;51.002;13.668;2022-12-10T19:14:13;98403.25;;;-2.87;93.21
4024;BME280;2026;51.002;13.668;2022-12-10T19:19:17;98401.59;;;-3.23;93.32
4024;BME280;2026;51.002;13.668;2022-12-10T19:24:20;98412.81;;;-3.06;93.21
4024;BME280;2026;51.002;13.668;2022-12-10T19:29:23;98407.03;;;-3.00;92.39
4024;BME280;2026;51.002;13.668;2022-12-10T19:34:28;98410.13;;;-2.88;92.95
4024;BME280;2026;51.002;13.668;2022-12-10T19:39:31;98418.34;;;-2.84;93.10
4024;BME280;2026;51.002;13.668;2022-12-10T19:44:36;98412.81;;;-3.06;92.73
4024;BME280;2026;51.002;13.668;2022-12-10T19:49:40;98425.56;;;-3.23;94.47
4024;BME280;2026;51.002;13.668;2022-12-10T19:54:43;98431.97;;;-3.27;94.32
4024;BME280;2026;51.002;13.668;2022-12-10T19:59:46;98442.09;;;-3.25;94.51
4024;BME280;2026;51.002;13.668;2022-12-10T20:04:50;98426.50;;;-3.24;94.06
4024;BME280;2026;51.002;13.668;2022-12-10T20:09:53;98422.13;;;-3.31;93.71
4024;BME280;2026;51.002;13.668;2022-12-10T20:14:56;98430.75;;;-3.41;93.76
4024;BME280;2026;51.002;13.668;2022-12-10T20:20:01;98428.63;;;-3.45;94.26
4024;BME280;2026;51.002;13.668;2022-12-10T20:25:04;98432.09;;;-3.28;93.25
4024;BME280;2026;51.002;13.668;2022-12-10T20:30:14;98433.84;;;-3.55;93.71
4024;BME280;2026;51.002;13.668;2022-12-10T20:35:19;98431.88;;;-3.17;93.41
4024;BME280;2026;51.002;13.668;2022-12-10T20:40:23;98431.00;;;-2.99;91.72
4024;BME280;2026;51.002;13.668;2022-12-10T20:45:33;98428.06;;;-3.04;91.14
4024;BME280;2026;51.002;13.668;2022-12-10T20:50:38;98434.13;;;-3.14;92.42
4024;BME280;2026;51.002;13.668;2022-12-10T20:55:40;98437.41;;;-3.03;91.99
4024;BME280;2026;51.002;13.668;2022-12-10T21:00:44;98434.56;;;-3.45;92.72
4024;BME280;2026;51.002;13.668;2022-12-10T21:05:48;98446.06;;;-3.57;93.26
4024;BME280;2026;51.002;13.668;2022-12-10T21:10:51;98436.16;;;-3.44;93.44
4024;BME280;2026;51.002;13.668;2022-12-10T21:15:57;98433.72;;;-3.54;92.82
4024;BME280;2026;51.002;13.668;2022-12-10T21:21:02;98439.84;;;-3.46;92.82
4024;BME280;2026;51.002;13.668;2022-12-10T21:26:05;98438.69;;;-3.70;93.06
4024;BME280;2026;51.002;13.668;2022-12-10T21:31:14;98439.56;;;-3.62;91.92
4024;BME280;2026;51.002;13.668;2022-12-10T21:36:20;98439.19;;;-3.49;92.03
4024;BME280;2026;51.002;13.668;2022-12-10T21:41:25;98446.25;;;-3.51;92.06
4024;BME280;2026;51.002;13.668;2022-12-10T21:46:46;98421.81;;;-3.73;91.98
4024;BME280;2026;51.002;13.668;2022-12-10T21:51:50;98429.22;;;-3.52;92.32
4024;BME280;2026;51.002;13.668;2022-12-10T21:56:53;98427.69;;;-3.63;92.67
4024;BME280;2026;51.002;13.668;2022-12-10T22:01:56;98423.13;;;-3.69;92.56
4024;BME280;2026;51.002;13.668;2022-12-10T22:07:00;98432.09;;;-3.73;93.08
4024;BME280;2026;51.002;13.668;2022-12-10T22:12:04;98429.53;;;-3.73;93.33
4024;BME280;2026;51.002;13.668;2022-12-10T22:17:07;98439.38;;;-3.86;92.72
4024;BME280;2026;51.002;13.668;2022-12-10T22:22:11;98435.13;;;-3.96;92.10
4024;BME280;2026;51.002;13.668;2022-12-10T22:27:14;98433.06;;;-3.92;93.21
4024;BME280;2026;51.002;13.668;2022-12-10T22:32:18;98437.31;;;-3.83;91.97
4024;BME280;2026;51.002;13.668;2022-12-10T22:37:22;98436.28;;;-3.90;91.48
4024;BME280;2026;51.002;13.668;2022-12-10T22:42:26;98428.56;;;-4.08;93.25
4024;BME280;2026;51.002;13.668;2022-12-10T22:47:29;98434.88;;;-3.84;92.98
4024;BME280;2026;51.002;13.668;2022-12-10T22:52:33;98431.66;;;-3.86;92.59
4024;BME280;2026;51.002;13.668;2022-12-10T22:57:36;98438.09;;;-3.82;92.74
4024;BME280;2026;51.002;13.668;2022-12-10T23:02:39;98445.75;;;-3.91;91.74
4024;BME280;2026;51.002;13.668;2022-12-10T23:07:43;98438.63;;;-3.97;91.76
4024;BME280;2026;51.002;13.668;2022-12-10T23:12:47;98441.84;;;-4.13;91.91
4024;BME280;2026;51.002;13.668;2022-12-10T23:18:09;98437.22;;;-4.09;91.95
4024;BME280;2026;51.002;13.668;2022-12-10T23:23:15;98429.28;;;-3.98;90.70
4024;BME280;2026;51.002;13.668;2022-12-10T23:28:19;98423.72;;;-3.75;90.35
4024;BME280;2026;51.002;13.668;2022-12-10T23:33:22;98427.31;;;-3.68;89.70
4024;BME280;2026;51.002;13.668;2022-12-10T23:38:27;98432.53;;;-3.96;90.24
4024;BME280;2026;51.002;13.668;2022-12-10T23:43:30;98420.88;;;-3.90;91.17
4024;BME280;2026;51.002;13.668;2022-12-10T23:48:33;98419.91;;;-3.71;90.44
4024;BME280;2026;51.002;13.668;2022-12-10T23:53:37;98420.94;;;-4.00;90.30
4024;BME280;2026;51.002;13.668;2022-12-10T23:58:40;98417.72;;;-4.02;90.71
